• Join FlightAware (Why Join?)
  • Login
  • US Flag GB Flag 
19:51 EST


 

Airport Tracker/Info


-or-


 

Live Flight TrackerFlight Track Log ✈ 9Y-BGI ✈ 12-Apr-2013 ✈ MKJP / KIN - TAPA / ANU

Flight Track Log - Related Links

Times and Time Zones

All times are in EDT time to prevent confusion due to time zone crossing. See the 9Y-BGI flight status page for this flight to view local times or setup timezone preferences in your user account.

Time Position Orientation Groundspeed Altitude Reporting Facility
EDT Latitude Longitude Course Direction KTS MPH feet Rate Location/Type
15:34 17.9366 -75.2496 90° East  Level FlightAware Approximate
15:35 17.9361 -75.1098 90° East  Level FlightAware Approximate
15:36 17.9354 -74.9700 90° East  Level FlightAware Approximate
15:37 17.9347 -74.8302 90° East  Level FlightAware Approximate
15:38 17.9339 -74.6904 90° East  Level FlightAware Approximate
15:39 17.9298 -74.5507 90° East  Level Estimated
15:40 17.9315 -74.4109 89° East  Level FlightAware Approximate
15:41 17.9331 -74.2711 89° East  Level FlightAware Approximate
15:42 17.9286 -74.1314 90° East  Level Estimated
15:43 17.9287 -73.9916 90° East  Level FlightAware Approximate
15:44 17.9287 -73.8518 90° East  Level FlightAware Approximate
15:45 17.9286 -73.7120 90° East  Level FlightAware Approximate
15:46 17.9283 -73.5722 90° East  Level FlightAware Approximate
15:47 17.9280 -73.4324 90° East  Level FlightAware Approximate
15:48 17.9276 -73.2926 90° East  Level FlightAware Approximate
15:49 17.9271 -73.1528 90° East  Level FlightAware Approximate
15:50 17.9265 -73.0130 90° East  Level FlightAware Approximate
15:51 17.9258 -72.8732 90° East  Level FlightAware Approximate
15:52 17.9250 -72.7334 90° East  Level FlightAware Approximate
15:53 17.9241 -72.5936 90° East  Level FlightAware Approximate
15:54 17.9231 -72.4538 90° East  Level FlightAware Approximate
15:55 17.9219 -72.3140 90° East  Level FlightAware Approximate
15:56 17.9207 -72.1742 90° East  Level FlightAware Approximate
15:57 17.9195 -72.0345 91° East  Level FlightAware Approximate
15:58 17.9180 -71.8947 91° East  Level FlightAware Approximate
15:59 17.9108 -71.7551 90° East  Level Estimated
16:00 17.9035 -71.6155 85° East  Level Estimated
16:01 17.9179 -71.4766 84° East  Level FlightAware Approximate
16:02 17.9106 -71.3474 93° East  Level Estimated
16:03 17.9033 -71.2183 93° East  Level Estimated
16:04 17.8958 -71.0891 93° East  Level Estimated
16:05 17.8883 -70.9600 93° East  Level Estimated
16:06 17.8807 -70.8309 94° East  Level Estimated
16:07 17.8730 -70.7018 94° East  Level Estimated
16:08 17.8653 -70.5727 94° East  Level Estimated
16:09 17.8574 -70.4436 94° East  Level Estimated
16:10 17.8495 -70.3146 94° East  Level Estimated
16:11 17.8414 -70.1855 94° East  Level Estimated
16:12 17.8333 -70.0565 94° East  Level Estimated
16:13 17.8251 -69.9275 94° East  Level Estimated
16:14 17.8168 -69.7984 94° East  Level Estimated
16:15 17.8085 -69.6694 94° East  Level Estimated
16:16 17.8000 -69.5405 94° East  Level Estimated
16:17 17.7915 -69.4115 94° East  Level Estimated
16:18 17.7829 -69.2825 94° East  Level Estimated
16:19 17.7742 -69.1535 94° East  Level Estimated
16:20 17.7654 -69.0246 94° East  Level Estimated
16:21 17.7565 -68.8957 94° East  Level Estimated
16:22 17.7475 -68.7667 94° East  Level Estimated
16:23 17.7385 -68.6378 94° East  Level Estimated
16:24 17.7294 -68.5090 94° East  Level Estimated
16:25 17.7202 -68.3801 94° East  Level Estimated
16:26 17.7109 -68.2512 94° East  Level Estimated
16:26 18.1500 -68.3167 95° East 530 610 37,000  Level San Juan Center
16:27 17.7015 -68.1224 94° East  Level Estimated
16:27 18.1667 -68.1833 82° East 500 575 37,000  Level San Juan Center
16:28 17.6920 -67.9935 94° East  Level Estimated
16:28 18.1833 -68.0500 82° East 490 564 37,000  Level San Juan Center
16:29 17.6825 -67.8647 94° East  Level Estimated
16:29 18.1833 -67.9000 90° East 500 575 37,000  Level San Juan Center
16:30 17.6728 -67.7359 94° East  Level Estimated
16:30 18.1333 -67.7500 109° East 500 575 37,000  Level San Juan Center
16:31 17.6631 -67.6071 95° East  Level Estimated
16:31 18.0833 -67.6167 112° Southeast 510 587 37,000  Level San Juan Center
16:32 18.0333 -67.4667 109° East 510 587 37,000  Level San Juan Center
16:33 18.0167 -67.3333 97° East 520 598 37,000  Level San Juan Center
16:34 18.0000 -67.1833 97° East 510 587 37,000  Level San Juan Center
16:35 17.9667 -67.0333 103° East 510 587 37,000  Level San Juan Center
16:36 17.9500 -66.8833 97° East 510 587 37,000  Level San Juan Center
16:37 17.9333 -66.7500 97° East 510 587 37,000  Level San Juan Center
16:38 17.9167 -66.6000 97° East 510 587 37,000  Level San Juan Center
16:39 17.8833 -66.4500 103° East 510 587 37,000  Level San Juan Center
16:40 17.8667 -66.3000 97° East 520 598 37,000  Level San Juan Center
16:41 17.8333 -66.1167 101° East 520 598 37,000  Level San Juan Center
16:42 17.8167 -65.9833 97° East 510 587 37,000  Level San Juan Center
16:43 17.8000 -65.8333 97° East 500 575 37,000  Level San Juan Center
16:44 17.7833 -65.6833 97° East 510 587 37,000  Level San Juan Center
16:45 17.7500 -65.5333 103° East 510 587 37,000  Level San Juan Center
16:46 17.7333 -65.3833 97° East 520 598 37,000  Level San Juan Center
16:47 17.7000 -65.2333 103° East 520 598 37,000  Level San Juan Center
16:48 17.6833 -65.0833 97° East 520 598 37,000  Level San Juan Center
16:49 17.6500 -64.9333 103° East 520 598 37,000  Level San Juan Center
16:50 17.6333 -64.7833 97° East 520 598 37,000  Level San Juan Center
16:51 17.6167 -64.6333 97° East 520 598 37,000  Level San Juan Center
16:52 17.5833 -64.4833 103° East 520 598 37,000  Level San Juan Center
16:53 17.5667 -64.3333 97° East 520 598 37,000  Level San Juan Center
16:54 17.5333 -64.1833 103° East 520 598 37,000  Level San Juan Center
16:55 17.5167 -64.0333 97° East 520 598 37,000 -60 Level San Juan Center
16:56 17.4833 -63.8833 103° East 520 598 36,900 -1,440 Descending San Juan Center
16:57 17.4667 -63.7333 97° East 520 598 34,200 -2,460 Descending San Juan Center
16:58 17.4333 -63.5833 103° East 510 587 32,000 -2,220 Descending San Juan Center
16:59 17.4167 -63.4500 97° East 500 575 29,800 -2,160 Descending San Juan Center
17:00 17.4000 -63.3000 97° East 490 564 27,700 -2,040 Descending San Juan Center
17:01 17.3667 -63.1833 107° East 460 529 25,800 -1,980 Descending San Juan Center
17:02 17.3500 -63.0500 97° East 450 518 23,800 -1,980 Descending San Juan Center
17:04 17.3230 -62.8699 102° East  Level FlightAware Approximate
17:11 17.1461 -61.9304 102° East  Level FlightAware Approximate
17:12 17.1167 -61.7972 90° East  Level FlightAware Approximate
17:13 17.1367 -61.7927 90° East  Level Estimated
17:14 17.1367 -61.7927 90° East  Level Estimated
17:15 17.1367 -61.7927 90° East  Level Estimated
17:16 17.1367 -61.7927 90° East  Level Estimated
17:17 17.1367 -61.7927 90° East  Level Estimated
17:18 17.1367 -61.7927 90° East  Level Estimated
17:19 17.1367 -61.7927 90° East  Level Estimated
17:20 17.1367 -61.7927 90° East  Level Estimated
17:21 17.1367 -61.7927 90° East  Level Estimated
17:22 17.1367 -61.7927 90° East  Level Estimated
17:23 17.1367 -61.7927 90° East  Level Estimated
17:24 17.1367 -61.7927 90° East  Level Estimated
17:25 17.1367 -61.7927 90° East  Level Estimated